Ever Ulysses — 9V7962 — position and weather

sailwx.info

Track history (hours):
 
Tides and Currents Weather Stations Pressure Air Temp Water Temp Dewpoint Dewpoint Depression Visibility Wind Speed Wind Dir Waves Ship Positions

Ever Ulysses

Last reported at 2016-Dec-10 08:04 UTC. Time now 2016-Dec-10 10:56 UTC.
Position N 30°25' E 122°42'.

Length 285 m; draft 9.8 m.

Type: Cargo ship. MMSI: 564442000.

Date/timePositionNaut miles runAvg speedWind from/ knotsBaromVisibWave heightAir tempDewpointWater temp
2016-Dec-10 08:04N 30°25' E 122°42'0 0.1
2016-Dec-10 06:16N 30°25' E 122°42'0 0.0
2016-Dec-10 02:20N 30°25' E 122°42'6 5.2
2016-Dec-10 01:14N 30°27' E 122°48'912.6
2016-Dec-10 00:33N 30°33' E 122°56'  
2016-Dec-04 11:26N 30°30' E 123°05'43212.3
2016-Dec-03 00:23N 24°16' E 119°02'3711.2
2016-Dec-02 21:06N 23°52' E 118°31'610.7
2016-Dec-02 20:31N 23°48' E 118°26'1110.2
2016-Dec-02 19:26N 23°41' E 118°17'23010.4
2016-Dec-01 21:21N 22°33' E 114°17'2 1.6
2016-Dec-01 20:18N 22°34' E 114°16'0 0.0
2016-Dec-01 19:30N 22°34' E 114°16'0 0.0
2016-Dec-01 18:30N 22°34' E 114°16'0 0.0
2016-Dec-01 17:18N 22°34' E 114°16'0 0.0
2016-Dec-01 15:30N 22°34' E 114°16'0 0.0
2016-Dec-01 14:30N 22°34' E 114°16'0 0.0
2016-Dec-01 13:21N 22°34' E 114°16'19 3.9
2016-Dec-01 08:29N 22°18' E 114°05'11 9.3
2016-Dec-01 07:15N 22°23' E 113°54'4 6.2
2016-Dec-01 06:33N 22°27' E 113°53'0 0.1
2016-Dec-01 05:25N 22°27' E 113°53'0 0.0
2016-Dec-01 03:24N 22°27' E 113°53'0 0.0
2016-Dec-01 01:05N 22°27' E 113°53'0 0.0
2016-Dec-01 00:23N 22°27' E 113°53'0 0.0
2016-Nov-30 23:29N 22°27' E 113°53'0 0.0
2016-Nov-30 22:33N 22°27' E 113°53'  
Track history (hours):
 
Tides and Currents Weather Stations Pressure Air Temp Water Temp Dewpoint Dewpoint Depression Visibility Wind Speed Wind Dir Waves Ship Positions

Ever Ulysses

Last reported at 2016-Dec-10 08:04 UTC. Time now 2016-Dec-10 10:56 UTC.
Position N 30°25' E 122°42'.

Length 285 m; draft 9.8 m.

Type: Cargo ship. MMSI: 564442000.

Date/timePositionNaut miles runAvg speedWind from/ knotsBaromVisibWave heightAir tempDewpointWater temp
2016-Dec-10 08:04N 30°25' E 122°42'0 0.1
2016-Dec-10 06:16N 30°25' E 122°42'0 0.0
2016-Dec-10 02:20N 30°25' E 122°42'6 5.2
2016-Dec-10 01:14N 30°27' E 122°48'912.6
2016-Dec-10 00:33N 30°33' E 122°56'  
2016-Dec-04 11:26N 30°30' E 123°05'43212.3
2016-Dec-03 00:23N 24°16' E 119°02'3711.2
2016-Dec-02 21:06N 23°52' E 118°31'610.7
2016-Dec-02 20:31N 23°48' E 118°26'1110.2
2016-Dec-02 19:26N 23°41' E 118°17'23010.4
2016-Dec-01 21:21N 22°33' E 114°17'2 1.6
2016-Dec-01 20:18N 22°34' E 114°16'0 0.0
2016-Dec-01 19:30N 22°34' E 114°16'0 0.0
2016-Dec-01 18:30N 22°34' E 114°16'0 0.0
2016-Dec-01 17:18N 22°34' E 114°16'0 0.0
2016-Dec-01 15:30N 22°34' E 114°16'0 0.0
2016-Dec-01 14:30N 22°34' E 114°16'0 0.0
2016-Dec-01 13:21N 22°34' E 114°16'19 3.9
2016-Dec-01 08:29N 22°18' E 114°05'11 9.3
2016-Dec-01 07:15N 22°23' E 113°54'4 6.2
2016-Dec-01 06:33N 22°27' E 113°53'0 0.1
2016-Dec-01 05:25N 22°27' E 113°53'0 0.0
2016-Dec-01 03:24N 22°27' E 113°53'0 0.0
2016-Dec-01 01:05N 22°27' E 113°53'0 0.0
2016-Dec-01 00:23N 22°27' E 113°53'0 0.0
2016-Nov-30 23:29N 22°27' E 113°53'0 0.0
2016-Nov-30 22:33N 22°27' E 113°53'  

Dump ship's entire track history